CheckWX is a tool to help pilots better visualize weather data.  It is not intended as a substitute for an official pre-flight weather briefing.

05:11:37 UTC

GVSV METAR
São Pedro Airport
São Pedro, Cape Verde
Current

1 hour ago

GVSV 240400Z 06018KT CAVOK 21/17 Q1016 NOSIG
Observed
Feb-24 @ 04:00 UTC
Wind
  • 060° at 18 KTS
Visibility
10,000+ meters
Flight Rules
VFR
Cloud Levels
  • Clear skies
Temperature
21°C / 70°F
Dewpoint
17°C / 63°F
Humidity
78%
Altimeter
30" Hg
Pressure
1015.92 hPa
Previous

2 hours ago

GVSV 240300Z 06017KT CAVOK 21/17 Q1016 NOSIG
Observed
Feb-24 @ 03:00 UTC
Wind
  • 060° at 17 KTS
Visibility
10,000+ meters
Flight Rules
VFR
Cloud Levels
  • Clear skies
Temperature
21°C / 70°F
Dewpoint
17°C / 63°F
Humidity
78%
Altimeter
30" Hg
Pressure
1015.92 hPa
Previous

3 hours ago

GVSV 240200Z 06018KT CAVOK 21/17 Q1017 NOSIG
Observed
Feb-24 @ 02:00 UTC
Wind
  • 060° at 18 KTS
Visibility
10,000+ meters
Flight Rules
VFR
Cloud Levels
  • Clear skies
Temperature
21°C / 70°F
Dewpoint
17°C / 63°F
Humidity
78%
Altimeter
30.03" Hg
Pressure
1016.92 hPa